sensor_id;sensor_type;location;lat;lon;timestamp;temperature;humidity
782;DHT22;374;52.568;13.402;2024-01-25T00:00:43;9.00;99.90
782;DHT22;374;52.568;13.402;2024-01-25T00:03:09;9.00;99.90
782;DHT22;374;52.568;13.402;2024-01-25T00:05:34;8.90;99.90
782;DHT22;374;52.568;13.402;2024-01-25T00:07:59;8.90;99.90
782;DHT22;374;52.568;13.402;2024-01-25T00:10:25;8.90;99.90
782;DHT22;374;52.568;13.402;2024-01-25T00:12:50;8.90;99.90
782;DHT22;374;52.568;13.402;2024-01-25T00:15:16;8.90;99.90
782;DHT22;374;52.568;13.402;2024-01-25T00:17:45;8.90;99.90
782;DHT22;374;52.568;13.402;2024-01-25T00:20:10;8.90;99.90
782;DHT22;374;52.568;13.402;2024-01-25T00:22:36;8.90;99.90
782;DHT22;374;52.568;13.402;2024-01-25T00:25:03;8.90;99.90
782;DHT22;374;52.568;13.402;2024-01-25T00:27:29;8.90;99.90
782;DHT22;374;52.568;13.402;2024-01-25T00:30:52;8.90;99.90
782;DHT22;374;52.568;13.402;2024-01-25T00:33:17;8.90;99.90
782;DHT22;374;52.568;13.402;2024-01-25T00:35:43;8.90;99.90
782;DHT22;374;52.568;13.402;2024-01-25T00:38:09;8.90;99.90
782;DHT22;374;52.568;13.402;2024-01-25T00:40:35;8.90;99.90
782;DHT22;374;52.568;13.402;2024-01-25T00:43:01;8.90;99.90
782;DHT22;374;52.568;13.402;2024-01-25T00:45:26;9.00;99.90
782;DHT22;374;52.568;13.402;2024-01-25T00:47:52;8.90;99.90
782;DHT22;374;52.568;13.402;2024-01-25T00:50:18;8.90;99.90
782;DHT22;374;52.568;13.402;2024-01-25T00:52:50;8.90;99.90
782;DHT22;374;52.568;13.402;2024-01-25T00:55:16;8.90;99.90
782;DHT22;374;52.568;13.402;2024-01-25T00:57:42;8.90;99.90
782;DHT22;374;52.568;13.402;2024-01-25T01:00:08;8.90;99.90
782;DHT22;374;52.568;13.402;2024-01-25T01:02:36;8.90;99.90
782;DHT22;374;52.568;13.402;2024-01-25T01:05:04;8.90;99.90
782;DHT22;374;52.568;13.402;2024-01-25T01:07:30;8.90;99.90
782;DHT22;374;52.568;13.402;2024-01-25T01:09:56;8.90;99.90
782;DHT22;374;52.568;13.402;2024-01-25T01:12:21;8.80;99.90
782;DHT22;374;52.568;13.402;2024-01-25T01:14:47;8.90;99.90
782;DHT22;374;52.568;13.402;2024-01-25T01:17:13;8.90;99.90
782;DHT22;374;52.568;13.402;2024-01-25T01:19:38;8.80;99.90
782;DHT22;374;52.568;13.402;2024-01-25T01:22:04;8.90;99.90
782;DHT22;374;52.568;13.402;2024-01-25T01:24:29;8.90;99.90
782;DHT22;374;52.568;13.402;2024-01-25T01:26:55;8.90;99.90
782;DHT22;374;52.568;13.402;2024-01-25T01:29:20;8.90;99.90
782;DHT22;374;52.568;13.402;2024-01-25T01:31:46;8.90;99.90
782;DHT22;374;52.568;13.402;2024-01-25T01:34:11;8.90;99.90
782;DHT22;374;52.568;13.402;2024-01-25T01:36:42;8.80;99.90
782;DHT22;374;52.568;13.402;2024-01-25T01:39:08;8.90;99.90
782;DHT22;374;52.568;13.402;2024-01-25T01:41:34;8.90;99.90
782;DHT22;374;52.568;13.402;2024-01-25T01:43:59;8.80;99.90
782;DHT22;374;52.568;13.402;2024-01-25T01:46:33;8.80;99.90
782;DHT22;374;52.568;13.402;2024-01-25T01:49:00;8.80;99.90
782;DHT22;374;52.568;13.402;2024-01-25T01:51:26;8.80;99.90
782;DHT22;374;52.568;13.402;2024-01-25T01:53:53;8.80;99.90
782;DHT22;374;52.568;13.402;2024-01-25T01:56:20;8.80;99.90
782;DHT22;374;52.568;13.402;2024-01-25T01:58:47;8.80;99.90
782;DHT22;374;52.568;13.402;2024-01-25T02:01:13;8.80;99.90
782;DHT22;374;52.568;13.402;2024-01-25T02:03:38;8.80;99.90
782;DHT22;374;52.568;13.402;2024-01-25T02:06:04;8.80;99.90
782;DHT22;374;52.568;13.402;2024-01-25T02:08:31;8.80;99.90
782;DHT22;374;52.568;13.402;2024-01-25T02:10:56;8.80;99.90
782;DHT22;374;52.568;13.402;2024-01-25T02:13:22;8.80;99.90
782;DHT22;374;52.568;13.402;2024-01-25T02:15:48;8.80;99.90
782;DHT22;374;52.568;13.402;2024-01-25T02:18:13;8.80;99.90
782;DHT22;374;52.568;13.402;2024-01-25T02:20:40;8.80;99.90
782;DHT22;374;52.568;13.402;2024-01-25T02:23:06;8.80;99.90
782;DHT22;374;52.568;13.402;2024-01-25T02:25:31;8.80;99.90
782;DHT22;374;52.568;13.402;2024-01-25T02:27:59;8.80;99.90
782;DHT22;374;52.568;13.402;2024-01-25T02:30:24;8.80;99.90
782;DHT22;374;52.568;13.402;2024-01-25T02:32:50;8.80;99.90
782;DHT22;374;52.568;13.402;2024-01-25T02:35:18;8.80;99.90
782;DHT22;374;52.568;13.402;2024-01-25T02:37:44;8.80;99.90
782;DHT22;374;52.568;13.402;2024-01-25T02:40:10;8.70;99.90
782;DHT22;374;52.568;13.402;2024-01-25T02:42:35;8.80;99.90
782;DHT22;374;52.568;13.402;2024-01-25T02:45:01;8.80;99.90
782;DHT22;374;52.568;13.402;2024-01-25T02:47:26;8.70;99.90
782;DHT22;374;52.568;13.402;2024-01-25T02:49:52;8.80;99.90
782;DHT22;374;52.568;13.402;2024-01-25T02:52:17;8.70;99.90
782;DHT22;374;52.568;13.402;2024-01-25T02:54:43;8.80;99.90
782;DHT22;374;52.568;13.402;2024-01-25T02:57:08;8.70;99.90
782;DHT22;374;52.568;13.402;2024-01-25T02:59:34;8.70;99.90
782;DHT22;374;52.568;13.402;2024-01-25T03:01:59;8.80;99.90
782;DHT22;374;52.568;13.402;2024-01-25T03:04:25;8.70;99.90
782;DHT22;374;52.568;13.402;2024-01-25T03:06:50;8.70;99.90
782;DHT22;374;52.568;13.402;2024-01-25T03:09:16;8.70;99.90
782;DHT22;374;52.568;13.402;2024-01-25T03:11:41;8.70;99.90
782;DHT22;374;52.568;13.402;2024-01-25T03:14:07;8.70;99.90
782;DHT22;374;52.568;13.402;2024-01-25T03:16:32;8.70;99.90
782;DHT22;374;52.568;13.402;2024-01-25T03:18:58;8.70;99.90
782;DHT22;374;52.568;13.402;2024-01-25T03:21:23;8.70;99.90
782;DHT22;374;52.568;13.402;2024-01-25T03:23:49;8.70;99.90
782;DHT22;374;52.568;13.402;2024-01-25T03:26:15;8.70;99.90
782;DHT22;374;52.568;13.402;2024-01-25T03:28:40;8.70;99.90
782;DHT22;374;52.568;13.402;2024-01-25T03:31:07;8.70;99.90
782;DHT22;374;52.568;13.402;2024-01-25T03:33:32;8.60;99.90
782;DHT22;374;52.568;13.402;2024-01-25T03:36:05;8.70;99.90
782;DHT22;374;52.568;13.402;2024-01-25T03:38:30;8.60;99.90
782;DHT22;374;52.568;13.402;2024-01-25T03:40:56;8.70;99.90
782;DHT22;374;52.568;13.402;2024-01-25T03:43:24;8.60;99.90
782;DHT22;374;52.568;13.402;2024-01-25T03:45:49;8.60;99.90
782;DHT22;374;52.568;13.402;2024-01-25T03:48:15;8.60;99.90
782;DHT22;374;52.568;13.402;2024-01-25T03:50:41;8.60;99.90
782;DHT22;374;52.568;13.402;2024-01-25T03:53:06;8.60;99.90
782;DHT22;374;52.568;13.402;2024-01-25T03:55:32;8.60;99.90
782;DHT22;374;52.568;13.402;2024-01-25T03:57:58;8.60;99.90
782;DHT22;374;52.568;13.402;2024-01-25T04:00:23;8.60;99.90
782;DHT22;374;52.568;13.402;2024-01-25T04:02:48;8.60;99.90
782;DHT22;374;52.568;13.402;2024-01-25T04:05:14;8.60;99.90
782;DHT22;374;52.568;13.402;2024-01-25T04:07:40;8.60;99.90
782;DHT22;374;52.568;13.402;2024-01-25T04:10:05;8.60;99.90
782;DHT22;374;52.568;13.402;2024-01-25T04:12:32;8.60;99.90
782;DHT22;374;52.568;13.402;2024-01-25T04:14:58;8.60;99.90
782;DHT22;374;52.568;13.402;2024-01-25T04:17:24;8.60;99.90
782;DHT22;374;52.568;13.402;2024-01-25T04:19:49;8.60;99.90
782;DHT22;374;52.568;13.402;2024-01-25T04:22:15;8.60;99.90
782;DHT22;374;52.568;13.402;2024-01-25T04:24:40;8.60;99.90
782;DHT22;374;52.568;13.402;2024-01-25T04:27:06;8.60;99.90
782;DHT22;374;52.568;13.402;2024-01-25T04:29:31;8.60;99.90
782;DHT22;374;52.568;13.402;2024-01-25T04:31:57;8.60;99.90
782;DHT22;374;52.568;13.402;2024-01-25T04:34:22;8.60;99.90
782;DHT22;374;52.568;13.402;2024-01-25T04:36:48;8.60;99.90
782;DHT22;374;52.568;13.402;2024-01-25T04:39:13;8.50;99.90
782;DHT22;374;52.568;13.402;2024-01-25T04:41:39;8.50;99.90
782;DHT22;374;52.568;13.402;2024-01-25T04:44:05;8.60;99.90
782;DHT22;374;52.568;13.402;2024-01-25T04:46:30;8.60;99.90
782;DHT22;374;52.568;13.402;2024-01-25T04:49:03;8.50;99.90
782;DHT22;374;52.568;13.402;2024-01-25T04:51:28;8.50;99.90
782;DHT22;374;52.568;13.402;2024-01-25T04:53:54;8.50;99.90
782;DHT22;374;52.568;13.402;2024-01-25T04:56:19;8.50;99.90
782;DHT22;374;52.568;13.402;2024-01-25T04:58:45;8.50;99.90
782;DHT22;374;52.568;13.402;2024-01-25T05:01:11;8.50;99.90
782;DHT22;374;52.568;13.402;2024-01-25T05:03:37;8.50;99.90
782;DHT22;374;52.568;13.402;2024-01-25T05:06:03;8.50;99.90
782;DHT22;374;52.568;13.402;2024-01-25T05:08:28;8.50;99.90
782;DHT22;374;52.568;13.402;2024-01-25T05:10:54;8.50;99.90
782;DHT22;374;52.568;13.402;2024-01-25T05:13:19;8.50;99.90
782;DHT22;374;52.568;13.402;2024-01-25T05:15:45;8.50;99.90
782;DHT22;374;52.568;13.402;2024-01-25T05:18:10;8.50;99.90
782;DHT22;374;52.568;13.402;2024-01-25T05:20:36;8.50;99.90
782;DHT22;374;52.568;13.402;2024-01-25T05:23:03;8.40;99.90
782;DHT22;374;52.568;13.402;2024-01-25T05:25:29;8.50;99.90
782;DHT22;374;52.568;13.402;2024-01-25T05:27:55;8.50;99.90
782;DHT22;374;52.568;13.402;2024-01-25T05:30:22;8.40;99.90
782;DHT22;374;52.568;13.402;2024-01-25T05:32:47;8.50;99.90
782;DHT22;374;52.568;13.402;2024-01-25T05:35:15;8.40;99.90
782;DHT22;374;52.568;13.402;2024-01-25T05:37:41;8.50;99.90
782;DHT22;374;52.568;13.402;2024-01-25T05:40:07;8.40;99.90
782;DHT22;374;52.568;13.402;2024-01-25T05:42:34;8.50;99.90
782;DHT22;374;52.568;13.402;2024-01-25T05:45:00;8.40;99.90
782;DHT22;374;52.568;13.402;2024-01-25T05:47:25;8.50;99.90
782;DHT22;374;52.568;13.402;2024-01-25T05:49:51;8.50;99.90
782;DHT22;374;52.568;13.402;2024-01-25T05:52:17;8.40;99.90
782;DHT22;374;52.568;13.402;2024-01-25T05:54:42;8.40;99.90
782;DHT22;374;52.568;13.402;2024-01-25T05:57:09;8.40;99.90
782;DHT22;374;52.568;13.402;2024-01-25T05:59:34;8.40;99.90
782;DHT22;374;52.568;13.402;2024-01-25T06:02:00;8.40;99.90
782;DHT22;374;52.568;13.402;2024-01-25T06:04:25;8.40;99.90
782;DHT22;374;52.568;13.402;2024-01-25T06:06:51;8.40;99.90
782;DHT22;374;52.568;13.402;2024-01-25T06:09:16;8.40;99.90
782;DHT22;374;52.568;13.402;2024-01-25T06:11:42;8.40;99.90
782;DHT22;374;52.568;13.402;2024-01-25T06:14:08;8.40;99.90
782;DHT22;374;52.568;13.402;2024-01-25T06:16:34;8.40;99.90
782;DHT22;374;52.568;13.402;2024-01-25T06:19:00;8.40;99.90
782;DHT22;374;52.568;13.402;2024-01-25T06:21:26;8.40;99.90
782;DHT22;374;52.568;13.402;2024-01-25T06:23:52;8.40;99.90
782;DHT22;374;52.568;13.402;2024-01-25T06:26:17;8.40;99.90
782;DHT22;374;52.568;13.402;2024-01-25T06:28:43;8.30;99.90
782;DHT22;374;52.568;13.402;2024-01-25T06:31:08;8.40;99.90
782;DHT22;374;52.568;13.402;2024-01-25T06:33:34;8.40;99.90
782;DHT22;374;52.568;13.402;2024-01-25T06:35:59;8.40;99.90
782;DHT22;374;52.568;13.402;2024-01-25T06:38:25;8.30;99.90
782;DHT22;374;52.568;13.402;2024-01-25T06:40:51;8.30;99.90
782;DHT22;374;52.568;13.402;2024-01-25T06:43:16;8.30;99.90
782;DHT22;374;52.568;13.402;2024-01-25T06:45:41;8.40;99.90
782;DHT22;374;52.568;13.402;2024-01-25T06:48:07;8.40;99.90
782;DHT22;374;52.568;13.402;2024-01-25T06:50:36;8.30;99.90
782;DHT22;374;52.568;13.402;2024-01-25T06:53:01;8.40;99.90
782;DHT22;374;52.568;13.402;2024-01-25T06:55:27;8.40;99.90
782;DHT22;374;52.568;13.402;2024-01-25T06:57:52;8.40;99.90
782;DHT22;374;52.568;13.402;2024-01-25T07:00:21;8.30;99.90
782;DHT22;374;52.568;13.402;2024-01-25T07:02:48;8.30;99.90
782;DHT22;374;52.568;13.402;2024-01-25T07:05:13;8.30;99.90
782;DHT22;374;52.568;13.402;2024-01-25T07:07:39;8.30;99.90
782;DHT22;374;52.568;13.402;2024-01-25T07:10:06;8.30;99.90
782;DHT22;374;52.568;13.402;2024-01-25T07:12:31;8.30;99.90
782;DHT22;374;52.568;13.402;2024-01-25T07:14:58;8.30;99.90
782;DHT22;374;52.568;13.402;2024-01-25T07:17:23;8.30;99.90
782;DHT22;374;52.568;13.402;2024-01-25T07:19:49;8.30;99.90
782;DHT22;374;52.568;13.402;2024-01-25T07:22:14;8.30;99.90
782;DHT22;374;52.568;13.402;2024-01-25T07:24:41;8.30;99.90
782;DHT22;374;52.568;13.402;2024-01-25T07:27:06;8.40;99.90
782;DHT22;374;52.568;13.402;2024-01-25T07:29:32;8.30;99.90
782;DHT22;374;52.568;13.402;2024-01-25T07:31:57;8.30;99.90
782;DHT22;374;52.568;13.402;2024-01-25T07:34:22;8.30;99.90
782;DHT22;374;52.568;13.402;2024-01-25T07:36:48;8.30;99.90
782;DHT22;374;52.568;13.402;2024-01-25T07:39:13;8.30;99.90
782;DHT22;374;52.568;13.402;2024-01-25T07:41:39;8.40;99.90
782;DHT22;374;52.568;13.402;2024-01-25T07:44:04;8.40;99.90
782;DHT22;374;52.568;13.402;2024-01-25T07:46:31;8.30;99.90
782;DHT22;374;52.568;13.402;2024-01-25T07:48:56;8.30;99.90
782;DHT22;374;52.568;13.402;2024-01-25T07:51:22;8.30;99.90
782;DHT22;374;52.568;13.402;2024-01-25T07:53:48;8.30;99.90
782;DHT22;374;52.568;13.402;2024-01-25T07:56:13;8.30;99.90
782;DHT22;374;52.568;13.402;2024-01-25T07:58:39;8.30;99.90
782;DHT22;374;52.568;13.402;2024-01-25T08:01:06;8.30;99.90
782;DHT22;374;52.568;13.402;2024-01-25T08:03:31;8.30;99.90
782;DHT22;374;52.568;13.402;2024-01-25T08:06:01;8.30;99.90
782;DHT22;374;52.568;13.402;2024-01-25T08:08:28;8.30;99.90
782;DHT22;374;52.568;13.402;2024-01-25T08:10:53;8.30;99.90
782;DHT22;374;52.568;13.402;2024-01-25T08:13:19;8.20;99.90
782;DHT22;374;52.568;13.402;2024-01-25T08:15:44;8.30;99.90
782;DHT22;374;52.568;13.402;2024-01-25T08:18:10;8.30;99.90
782;DHT22;374;52.568;13.402;2024-01-25T08:20:37;8.30;99.90
782;DHT22;374;52.568;13.402;2024-01-25T08:23:03;8.30;99.90
782;DHT22;374;52.568;13.402;2024-01-25T08:25:29;8.20;99.90
782;DHT22;374;52.568;13.402;2024-01-25T08:27:54;8.30;99.90
782;DHT22;374;52.568;13.402;2024-01-25T08:30:22;8.30;99.90
782;DHT22;374;52.568;13.402;2024-01-25T08:32:47;8.30;99.90
782;DHT22;374;52.568;13.402;2024-01-25T08:35:13;8.30;99.90
782;DHT22;374;52.568;13.402;2024-01-25T08:37:38;8.30;99.90
782;DHT22;374;52.568;13.402;2024-01-25T08:40:05;8.30;99.90
782;DHT22;374;52.568;13.402;2024-01-25T08:42:35;8.30;99.90
782;DHT22;374;52.568;13.402;2024-01-25T08:45:01;8.30;99.90
782;DHT22;374;52.568;13.402;2024-01-25T08:47:26;8.30;99.90
782;DHT22;374;52.568;13.402;2024-01-25T08:49:52;8.30;99.90
782;DHT22;374;52.568;13.402;2024-01-25T08:52:17;8.20;99.90
782;DHT22;374;52.568;13.402;2024-01-25T08:54:43;8.20;99.90
782;DHT22;374;52.568;13.402;2024-01-25T08:57:09;8.30;99.90
782;DHT22;374;52.568;13.402;2024-01-25T08:59:35;8.30;99.90
782;DHT22;374;52.568;13.402;2024-01-25T09:02:03;8.30;99.90
782;DHT22;374;52.568;13.402;2024-01-25T09:04:29;8.20;99.90
782;DHT22;374;52.568;13.402;2024-01-25T09:06:55;8.30;99.90
782;DHT22;374;52.568;13.402;2024-01-25T09:09:20;8.30;99.90
782;DHT22;374;52.568;13.402;2024-01-25T09:11:46;8.30;99.90
782;DHT22;374;52.568;13.402;2024-01-25T09:14:12;8.30;99.90
782;DHT22;374;52.568;13.402;2024-01-25T09:16:37;8.30;99.90
782;DHT22;374;52.568;13.402;2024-01-25T09:19:04;8.30;99.90
782;DHT22;374;52.568;13.402;2024-01-25T09:21:30;8.30;99.90
782;DHT22;374;52.568;13.402;2024-01-25T09:23:55;8.30;99.90
782;DHT22;374;52.568;13.402;2024-01-25T09:26:21;8.30;99.90
782;DHT22;374;52.568;13.402;2024-01-25T09:28:46;8.30;99.90
782;DHT22;374;52.568;13.402;2024-01-25T09:31:14;8.30;99.90
782;DHT22;374;52.568;13.402;2024-01-25T09:33:40;8.30;99.90
782;DHT22;374;52.568;13.402;2024-01-25T09:36:06;8.30;99.90
782;DHT22;374;52.568;13.402;2024-01-25T09:38:32;8.30;99.90
782;DHT22;374;52.568;13.402;2024-01-25T09:40:57;8.30;99.90
782;DHT22;374;52.568;13.402;2024-01-25T09:43:23;8.30;99.90
782;DHT22;374;52.568;13.402;2024-01-25T09:45:53;8.20;99.90
782;DHT22;374;52.568;13.402;2024-01-25T09:48:20;8.30;99.90
782;DHT22;374;52.568;13.402;2024-01-25T09:50:47;8.30;99.90
782;DHT22;374;52.568;13.402;2024-01-25T09:53:21;8.30;99.90
782;DHT22;374;52.568;13.402;2024-01-25T09:55:57;8.30;99.90
782;DHT22;374;52.568;13.402;2024-01-25T09:58:26;8.30;99.90
782;DHT22;374;52.568;13.402;2024-01-25T10:00:54;8.30;99.90
782;DHT22;374;52.568;13.402;2024-01-25T10:03:20;8.30;99.90
782;DHT22;374;52.568;13.402;2024-01-25T10:05:46;8.30;99.90
782;DHT22;374;52.568;13.402;2024-01-25T10:08:14;8.30;99.90
782;DHT22;374;52.568;13.402;2024-01-25T10:10:40;8.30;99.90
782;DHT22;374;52.568;13.402;2024-01-25T10:13:05;8.30;99.90
782;DHT22;374;52.568;13.402;2024-01-25T10:15:31;8.20;99.90
782;DHT22;374;52.568;13.402;2024-01-25T10:17:56;8.30;99.90
782;DHT22;374;52.568;13.402;2024-01-25T10:20:22;8.30;99.90
782;DHT22;374;52.568;13.402;2024-01-25T10:22:50;8.30;99.90
782;DHT22;374;52.568;13.402;2024-01-25T10:25:17;8.30;99.90
782;DHT22;374;52.568;13.402;2024-01-25T10:27:43;8.20;99.90
782;DHT22;374;52.568;13.402;2024-01-25T10:30:09;8.30;99.90
782;DHT22;374;52.568;13.402;2024-01-25T10:32:35;8.20;99.90
782;DHT22;374;52.568;13.402;2024-01-25T10:35:02;8.30;99.90
782;DHT22;374;52.568;13.402;2024-01-25T10:37:28;8.30;99.90
782;DHT22;374;52.568;13.402;2024-01-25T10:39:55;8.30;99.90
782;DHT22;374;52.568;13.402;2024-01-25T10:42:21;8.30;99.90
782;DHT22;374;52.568;13.402;2024-01-25T10:44:46;8.20;99.90
782;DHT22;374;52.568;13.402;2024-01-25T10:47:12;8.20;99.90
782;DHT22;374;52.568;13.402;2024-01-25T10:49:38;8.20;99.90
782;DHT22;374;52.568;13.402;2024-01-25T10:52:05;8.30;99.90
782;DHT22;374;52.568;13.402;2024-01-25T10:54:34;8.30;99.90
782;DHT22;374;52.568;13.402;2024-01-25T10:56:59;8.30;99.90
782;DHT22;374;52.568;13.402;2024-01-25T10:59:25;8.30;99.90
782;DHT22;374;52.568;13.402;2024-01-25T11:01:54;8.30;99.90
782;DHT22;374;52.568;13.402;2024-01-25T11:04:20;8.30;99.90
782;DHT22;374;52.568;13.402;2024-01-25T11:06:46;8.30;99.90
782;DHT22;374;52.568;13.402;2024-01-25T11:09:19;8.20;99.90
782;DHT22;374;52.568;13.402;2024-01-25T11:11:47;8.30;99.90
782;DHT22;374;52.568;13.402;2024-01-25T11:14:16;8.30;99.90
782;DHT22;374;52.568;13.402;2024-01-25T11:16:43;8.20;99.90
782;DHT22;374;52.568;13.402;2024-01-25T11:19:19;8.30;99.90
782;DHT22;374;52.568;13.402;2024-01-25T11:21:46;8.30;99.90
782;DHT22;374;52.568;13.402;2024-01-25T11:24:19;8.30;99.90
782;DHT22;374;52.568;13.402;2024-01-25T11:26:45;8.20;99.90
782;DHT22;374;52.568;13.402;2024-01-25T11:29:15;8.30;99.90
782;DHT22;374;52.568;13.402;2024-01-25T11:31:43;8.30;99.90
782;DHT22;374;52.568;13.402;2024-01-25T11:34:10;8.20;99.90
782;DHT22;374;52.568;13.402;2024-01-25T11:36:36;8.20;99.90
782;DHT22;374;52.568;13.402;2024-01-25T11:39:02;8.30;99.90
782;DHT22;374;52.568;13.402;2024-01-25T11:41:28;8.30;99.90
782;DHT22;374;52.568;13.402;2024-01-25T11:43:53;8.30;99.90
782;DHT22;374;52.568;13.402;2024-01-25T11:46:19;8.30;99.90
782;DHT22;374;52.568;13.402;2024-01-25T11:48:47;8.30;99.90
782;DHT22;374;52.568;13.402;2024-01-25T11:51:13;8.30;99.90
782;DHT22;374;52.568;13.402;2024-01-25T11:53:39;8.30;99.90
782;DHT22;374;52.568;13.402;2024-01-25T11:56:08;8.20;99.90
782;DHT22;374;52.568;13.402;2024-01-25T11:58:36;8.20;99.90
782;DHT22;374;52.568;13.402;2024-01-25T12:01:02;8.30;99.90
782;DHT22;374;52.568;13.402;2024-01-25T12:03:31;8.30;99.90
782;DHT22;374;52.568;13.402;2024-01-25T12:05:57;8.30;99.90
782;DHT22;374;52.568;13.402;2024-01-25T12:08:24;8.20;99.90
782;DHT22;374;52.568;13.402;2024-01-25T12:10:50;8.30;99.90
782;DHT22;374;52.568;13.402;2024-01-25T12:13:16;8.30;99.90
782;DHT22;374;52.568;13.402;2024-01-25T12:15:42;8.30;99.90
782;DHT22;374;52.568;13.402;2024-01-25T12:18:07;8.30;99.90
782;DHT22;374;52.568;13.402;2024-01-25T12:20:35;8.30;99.90
782;DHT22;374;52.568;13.402;2024-01-25T12:23:01;8.30;99.90
782;DHT22;374;52.568;13.402;2024-01-25T12:25:26;8.30;99.90
782;DHT22;374;52.568;13.402;2024-01-25T12:27:53;8.30;99.90
782;DHT22;374;52.568;13.402;2024-01-25T12:30:18;8.30;99.90
782;DHT22;374;52.568;13.402;2024-01-25T12:32:44;8.30;99.90
782;DHT22;374;52.568;13.402;2024-01-25T12:35:09;8.30;99.90
782;DHT22;374;52.568;13.402;2024-01-25T12:37:35;8.30;99.90
782;DHT22;374;52.568;13.402;2024-01-25T12:40:01;8.30;99.90
782;DHT22;374;52.568;13.402;2024-01-25T12:42:27;8.30;99.90
782;DHT22;374;52.568;13.402;2024-01-25T12:44:53;8.30;99.90
782;DHT22;374;52.568;13.402;2024-01-25T12:47:22;8.30;99.90
782;DHT22;374;52.568;13.402;2024-01-25T12:49:49;8.30;99.90
782;DHT22;374;52.568;13.402;2024-01-25T12:52:15;8.30;99.90
782;DHT22;374;52.568;13.402;2024-01-25T12:54:41;8.30;99.90
782;DHT22;374;52.568;13.402;2024-01-25T12:57:07;8.30;99.90
782;DHT22;374;52.568;13.402;2024-01-25T12:59:34;8.40;99.90
782;DHT22;374;52.568;13.402;2024-01-25T13:01:59;8.30;99.90
782;DHT22;374;52.568;13.402;2024-01-25T13:04:25;8.40;99.90
782;DHT22;374;52.568;13.402;2024-01-25T13:06:54;8.40;99.90
782;DHT22;374;52.568;13.402;2024-01-25T13:09:21;8.40;99.90
782;DHT22;374;52.568;13.402;2024-01-25T13:11:47;8.40;99.90
782;DHT22;374;52.568;13.402;2024-01-25T13:14:13;8.40;99.90
782;DHT22;374;52.568;13.402;2024-01-25T13:16:39;8.40;99.90
782;DHT22;374;52.568;13.402;2024-01-25T13:19:04;8.40;99.90
782;DHT22;374;52.568;13.402;2024-01-25T13:21:31;8.40;99.90
782;DHT22;374;52.568;13.402;2024-01-25T13:23:56;8.30;99.90
782;DHT22;374;52.568;13.402;2024-01-25T13:26:22;8.30;99.90
782;DHT22;374;52.568;13.402;2024-01-25T13:28:47;8.30;99.90
782;DHT22;374;52.568;13.402;2024-01-25T13:31:13;8.40;99.90
782;DHT22;374;52.568;13.402;2024-01-25T13:33:38;8.40;99.90
782;DHT22;374;52.568;13.402;2024-01-25T13:36:04;8.40;99.90
782;DHT22;374;52.568;13.402;2024-01-25T13:38:34;8.40;99.90
782;DHT22;374;52.568;13.402;2024-01-25T13:41:00;8.40;99.90
782;DHT22;374;52.568;13.402;2024-01-25T13:43:25;8.40;99.90
782;DHT22;374;52.568;13.402;2024-01-25T13:45:51;8.40;99.90
782;DHT22;374;52.568;13.402;2024-01-25T13:48:16;8.40;99.90
782;DHT22;374;52.568;13.402;2024-01-25T13:50:44;8.40;99.90
782;DHT22;374;52.568;13.402;2024-01-25T13:53:09;8.40;99.90
782;DHT22;374;52.568;13.402;2024-01-25T13:55:36;8.40;99.90
782;DHT22;374;52.568;13.402;2024-01-25T13:58:01;8.40;99.90
782;DHT22;374;52.568;13.402;2024-01-25T14:00:27;8.40;99.90
782;DHT22;374;52.568;13.402;2024-01-25T14:02:53;8.40;99.90
782;DHT22;374;52.568;13.402;2024-01-25T14:05:18;8.40;99.90
782;DHT22;374;52.568;13.402;2024-01-25T14:07:44;8.40;99.90
782;DHT22;374;52.568;13.402;2024-01-25T14:10:09;8.40;99.90
782;DHT22;374;52.568;13.402;2024-01-25T14:12:35;8.40;99.90
782;DHT22;374;52.568;13.402;2024-01-25T14:15:00;8.40;99.90
782;DHT22;374;52.568;13.402;2024-01-25T14:17:26;8.40;99.90
782;DHT22;374;52.568;13.402;2024-01-25T14:19:53;8.40;99.90
782;DHT22;374;52.568;13.402;2024-01-25T14:22:18;8.40;99.90
782;DHT22;374;52.568;13.402;2024-01-25T14:24:44;8.40;99.90
782;DHT22;374;52.568;13.402;2024-01-25T14:27:09;8.40;99.90
782;DHT22;374;52.568;13.402;2024-01-25T14:29:35;8.40;99.90
782;DHT22;374;52.568;13.402;2024-01-25T14:32:01;8.40;99.90
782;DHT22;374;52.568;13.402;2024-01-25T14:34:27;8.40;99.90
782;DHT22;374;52.568;13.402;2024-01-25T14:36:53;8.40;99.90
782;DHT22;374;52.568;13.402;2024-01-25T14:39:18;8.40;99.90
782;DHT22;374;52.568;13.402;2024-01-25T14:41:44;8.30;99.90
782;DHT22;374;52.568;13.402;2024-01-25T14:44:13;8.30;99.90
782;DHT22;374;52.568;13.402;2024-01-25T14:46:38;8.30;99.90
782;DHT22;374;52.568;13.402;2024-01-25T14:49:04;8.30;99.90
782;DHT22;374;52.568;13.402;2024-01-25T14:51:30;8.30;99.90
782;DHT22;374;52.568;13.402;2024-01-25T14:53:56;8.40;99.90
782;DHT22;374;52.568;13.402;2024-01-25T14:56:21;8.30;99.90
782;DHT22;374;52.568;13.402;2024-01-25T14:58:50;8.40;99.90
782;DHT22;374;52.568;13.402;2024-01-25T15:01:16;8.30;99.90
782;DHT22;374;52.568;13.402;2024-01-25T15:03:44;8.30;99.90
782;DHT22;374;52.568;13.402;2024-01-25T15:06:10;8.30;99.90
782;DHT22;374;52.568;13.402;2024-01-25T15:08:36;8.30;99.90
782;DHT22;374;52.568;13.402;2024-01-25T15:11:01;8.30;99.90
782;DHT22;374;52.568;13.402;2024-01-25T15:13:28;8.30;99.90
782;DHT22;374;52.568;13.402;2024-01-25T15:15:53;8.30;99.90
782;DHT22;374;52.568;13.402;2024-01-25T15:18:24;8.30;99.90
782;DHT22;374;52.568;13.402;2024-01-25T15:20:49;8.30;99.90
782;DHT22;374;52.568;13.402;2024-01-25T15:23:16;8.40;99.90
782;DHT22;374;52.568;13.402;2024-01-25T15:25:42;8.40;99.90
782;DHT22;374;52.568;13.402;2024-01-25T15:28:08;8.40;99.90
782;DHT22;374;52.568;13.402;2024-01-25T15:30:33;8.40;99.90
782;DHT22;374;52.568;13.402;2024-01-25T15:33:01;8.40;99.90
782;DHT22;374;52.568;13.402;2024-01-25T15:35:28;8.30;99.90
782;DHT22;374;52.568;13.402;2024-01-25T15:37:53;8.30;99.90
782;DHT22;374;52.568;13.402;2024-01-25T15:40:19;8.30;99.90
782;DHT22;374;52.568;13.402;2024-01-25T15:42:45;8.30;99.90
782;DHT22;374;52.568;13.402;2024-01-25T15:45:11;8.30;99.90
782;DHT22;374;52.568;13.402;2024-01-25T15:47:36;8.40;99.90
782;DHT22;374;52.568;13.402;2024-01-25T15:50:03;8.40;99.90
782;DHT22;374;52.568;13.402;2024-01-25T15:52:37;8.40;99.90
782;DHT22;374;52.568;13.402;2024-01-25T15:55:05;8.30;99.90
782;DHT22;374;52.568;13.402;2024-01-25T15:57:30;8.30;99.90
782;DHT22;374;52.568;13.402;2024-01-25T15:59:58;8.30;99.90
782;DHT22;374;52.568;13.402;2024-01-25T16:02:24;8.30;99.90
782;DHT22;374;52.568;13.402;2024-01-25T16:04:49;8.30;99.90
782;DHT22;374;52.568;13.402;2024-01-25T16:07:15;8.30;99.90
782;DHT22;374;52.568;13.402;2024-01-25T16:09:41;8.40;99.90
782;DHT22;374;52.568;13.402;2024-01-25T16:12:07;8.40;99.90
782;DHT22;374;52.568;13.402;2024-01-25T16:14:33;8.40;99.90
782;DHT22;374;52.568;13.402;2024-01-25T16:16:59;8.40;99.90
782;DHT22;374;52.568;13.402;2024-01-25T16:19:24;8.40;99.90
782;DHT22;374;52.568;13.402;2024-01-25T16:21:50;8.40;99.90
782;DHT22;374;52.568;13.402;2024-01-25T16:24:16;8.40;99.90
782;DHT22;374;52.568;13.402;2024-01-25T16:26:44;8.40;99.90